Time;durP1;ratioP1;P1;durP2;ratioP2;P2;SDS_P1;SDS_P2;PMS_P1;PMS_P2;Temp;Humidity;BMP_temperature;BMP_pressure;BME280_temperature;BME280_humidity;BME280_pressure;Samples;Min_cycle;Max_cycle;Signal;HPM_P1;HPM_P2
2020/12/02 00:00:35;;;;;;;78.80;24.58;;;10.00;64.20;;;;;;4939606;28;20102;-64
2020/12/02 00:03:13;;;;;;;82.80;25.98;;;10.00;64.20;;;;;;4944136;28;20488;-64
2020/12/02 00:05:43;;;;;;;75.65;25.33;;;10.00;64.20;;;;;;4938441;28;20126;-64
2020/12/02 00:08:13;;;;;;;81.47;25.58;;;10.00;64.30;;;;;;4939171;28;20414;-64
2020/12/02 00:10:40;;;;;;;82.00;24.90;;;10.00;64.40;;;;;;4944105;28;20050;-64
2020/12/02 00:13:09;;;;;;;74.32;24.60;;;10.00;65.10;;;;;;4942277;28;20050;-64
2020/12/02 00:15:34;;;;;;;74.78;25.83;;;10.00;64.40;;;;;;4943845;28;20047;-64
2020/12/02 00:18:00;;;;;;;78.75;26.00;;;10.00;64.40;;;;;;4939850;28;20074;-64
2020/12/02 00:20:26;;;;;;;72.45;23.92;;;10.10;64.40;;;;;;4956969;28;20039;-64
2020/12/02 00:22:55;;;;;;;73.72;24.90;;;10.10;64.30;;;;;;4948184;28;20576;-64
2020/12/02 00:25:20;;;;;;;75.70;25.40;;;10.00;64.20;;;;;;4942407;28;20593;-64
2020/12/02 00:27:46;;;;;;;81.05;25.42;;;10.10;64.30;;;;;;4936165;28;20611;-64
2020/12/02 00:30:14;;;;;;;73.22;24.70;;;10.10;64.20;;;;;;4945189;28;20093;-64
2020/12/02 00:32:43;;;;;;;70.88;25.13;;;10.10;64.20;;;;;;4938852;28;21438;-64
2020/12/02 00:35:17;;;;;;;72.38;25.17;;;10.10;64.30;;;;;;4935983;28;20523;-64
2020/12/02 00:37:43;;;;;;;65.93;23.02;;;10.10;64.20;;;;;;4940839;28;20065;-64
2020/12/02 00:40:12;;;;;;;71.10;24.77;;;10.20;64.60;;;;;;4941471;28;20047;-64
2020/12/02 00:42:38;;;;;;;70.93;25.52;;;10.20;64.10;;;;;;4942336;28;20057;-64
2020/12/02 00:45:06;;;;;;;69.50;24.98;;;10.20;64.10;;;;;;4944223;28;20047;-64
2020/12/02 00:47:32;;;;;;;72.78;24.65;;;10.20;64.10;;;;;;4942038;28;20464;-64
2020/12/02 00:49:57;;;;;;;82.43;25.92;;;10.20;64.00;;;;;;4947338;28;20047;-64
2020/12/02 00:52:25;;;;;;;82.35;27.83;;;10.10;63.90;;;;;;4945582;28;20078;-64
2020/12/02 00:54:51;;;;;;;91.18;27.90;;;10.10;63.90;;;;;;4943499;28;20039;-64
2020/12/02 00:57:27;;;;;;;85.18;27.67;;;10.10;64.00;;;;;;4945052;28;20070;-64
2020/12/02 00:59:56;;;;;;;81.28;27.63;;;10.10;64.00;;;;;;4950887;28;20147;-64
2020/12/02 01:02:27;;;;;;;85.65;27.55;;;10.10;64.10;;;;;;4945425;28;21422;-64
2020/12/02 01:04:56;;;;;;;82.95;27.27;;;10.00;64.10;;;;;;4940207;28;21314;-64
2020/12/02 01:07:21;;;;;;;86.50;28.10;;;10.00;64.00;;;;;;4939156;28;20043;-64
2020/12/02 01:09:49;;;;;;;80.80;26.85;;;10.00;64.10;;;;;;4940401;28;20051;-64
2020/12/02 01:12:17;;;;;;;84.82;27.20;;;10.00;64.00;;;;;;4942696;28;23621;-64
2020/12/02 01:14:43;;;;;;;88.57;27.70;;;10.00;64.00;;;;;;4942200;28;20133;-64
2020/12/02 01:17:11;;;;;;;82.78;27.50;;;9.90;63.90;;;;;;4942136;28;20386;-64
2020/12/02 01:19:38;;;;;;;86.28;27.27;;;9.90;64.00;;;;;;4951754;28;22983;-64
2020/12/02 01:22:26;;;;;;;75.82;25.90;;;9.90;64.10;;;;;;4947603;28;20051;-64
2020/12/02 01:25:01;;;;;;;76.75;25.98;;;9.90;64.10;;;;;;4944714;28;20618;-64
2020/12/02 01:27:32;;;;;;;82.10;27.23;;;9.90;64.20;;;;;;4947176;28;20046;-64
2020/12/02 01:29:58;;;;;;;77.32;26.80;;;9.90;64.10;;;;;;4942872;28;20067;-64
2020/12/02 01:32:25;;;;;;;82.82;26.27;;;9.90;64.10;;;;;;4943354;28;20129;-64
2020/12/02 01:34:53;;;;;;;84.30;27.00;;;9.80;64.00;;;;;;4942823;28;20039;-64
2020/12/02 01:37:41;;;;;;;83.47;27.77;;;9.80;64.00;;;;;;4942975;28;20043;-64
2020/12/02 01:40:21;;;;;;;75.13;26.77;;;9.80;64.00;;;;;;4945978;28;20380;-64
2020/12/02 01:42:55;;;;;;;73.63;25.98;;;9.80;64.00;;;;;;4944494;28;20504;-64
2020/12/02 01:45:29;;;;;;;78.10;25.85;;;9.80;64.00;;;;;;4945306;28;20047;-64
2020/12/02 01:48:31;;;;;;;75.63;25.55;;;9.80;63.90;;;;;;4937742;28;20046;-64
2020/12/02 01:51:04;;;;;;;72.43;25.42;;;9.80;64.00;;;;;;4941933;28;20047;-64
2020/12/02 01:53:48;;;;;;;75.00;28.05;;;9.80;63.80;;;;;;4943259;28;20043;-64
2020/12/02 01:56:27;;;;;;;86.78;28.42;;;9.80;63.90;;;;;;4937167;28;20703;-64
2020/12/02 01:59:17;;;;;;;77.32;25.08;;;9.70;63.90;;;;;;4946033;28;20401;-64
2020/12/02 02:02:05;;;;;;;82.93;27.17;;;9.70;63.90;;;;;;4937854;28;20051;-64
2020/12/02 02:05:00;;;;;;;79.93;27.23;;;9.70;63.90;;;;;;4944525;28;20038;-64
2020/12/02 02:07:27;;;;;;;86.22;27.60;;;9.70;63.90;;;;;;4939489;28;20699;-64
2020/12/02 02:10:07;;;;;;;75.50;27.38;;;9.70;63.80;;;;;;4947669;28;20051;-64
2020/12/02 02:12:36;;;;;;;80.47;27.23;;;9.70;63.90;;;;;;4965206;28;20569;-64
2020/12/02 02:15:29;;;;;;;79.00;27.52;;;9.70;63.90;;;;;;4945739;28;20042;-64
2020/12/02 02:18:10;;;;;;;90.95;28.63;;;9.70;63.90;;;;;;4941575;28;20145;-64
2020/12/02 02:20:40;;;;;;;79.50;28.17;;;9.70;63.80;;;;;;4942395;28;20035;-64
2020/12/02 02:23:09;;;;;;;93.85;30.27;;;9.60;63.80;;;;;;4940909;28;20051;-64
2020/12/02 02:25:35;;;;;;;80.50;27.13;;;9.70;63.90;;;;;;4943550;28;20054;-64
2020/12/02 02:28:03;;;;;;;83.70;28.27;;;9.70;63.80;;;;;;4938759;28;20054;-64
2020/12/02 02:30:30;;;;;;;86.40;29.13;;;9.70;63.70;;;;;;4946025;28;20586;-64
2020/12/02 02:32:56;;;;;;;87.90;30.25;;;9.70;63.80;;;;;;4947303;28;20089;-64
2020/12/02 02:35:22;;;;;;;92.65;29.48;;;9.70;63.60;;;;;;4942553;28;20043;-64
2020/12/02 02:37:48;;;;;;;87.85;28.83;;;9.70;63.80;;;;;;4942948;28;20047;-64
2020/12/02 02:40:14;;;;;;;92.95;30.70;;;9.70;63.60;;;;;;4941672;28;20672;-64
2020/12/02 02:42:45;;;;;;;88.60;29.08;;;9.70;63.40;;;;;;4946105;28;20047;-64
2020/12/02 02:45:21;;;;;;;100.88;31.45;;;9.70;63.50;;;;;;4947976;28;20031;-64
2020/12/02 02:47:46;;;;;;;100.90;31.35;;;9.70;63.50;;;;;;4942845;28;20184;-64
2020/12/02 02:52:46;;;;;;;109.00;31.83;;;9.70;63.50;;;;;;4939961;28;22162;-62
2020/12/02 02:55:16;;;;;;;98.82;32.15;;;9.70;63.50;;;;;;4945233;28;20031;-62
2020/12/02 02:57:42;;;;;;;109.60;32.30;;;9.70;63.60;;;;;;4945627;28;20048;-62
2020/12/02 03:00:10;;;;;;;115.13;33.17;;;9.70;63.50;;;;;;4949981;28;20182;-62
2020/12/02 03:02:36;;;;;;;115.22;33.00;;;9.70;63.50;;;;;;4945910;28;20053;-62
2020/12/02 03:05:05;;;;;;;137.18;35.30;;;9.80;63.50;;;;;;4946198;28;20035;-62
2020/12/02 03:07:31;;;;;;;125.25;33.88;;;9.70;63.40;;;;;;4935761;28;20492;-62
2020/12/02 03:09:59;;;;;;;137.63;34.58;;;9.70;63.40;;;;;;4940018;28;20337;-62
2020/12/02 03:12:26;;;;;;;131.13;34.85;;;9.70;63.40;;;;;;4945102;28;20054;-62
2020/12/02 03:14:53;;;;;;;146.18;37.45;;;9.70;63.40;;;;;;4943233;28;20041;-62
2020/12/02 03:17:22;;;;;;;148.80;35.03;;;9.70;63.50;;;;;;4940259;28;20078;-62
2020/12/02 03:19:59;;;;;;;148.82;36.75;;;9.70;63.50;;;;;;4945520;28;21397;-62
2020/12/02 03:22:27;;;;;;;150.25;38.47;;;9.60;63.50;;;;;;4943401;28;20051;-62
2020/12/02 03:24:57;;;;;;;147.73;37.13;;;9.70;63.60;;;;;;4949037;28;20098;-62
2020/12/02 03:27:23;;;;;;;155.50;37.30;;;9.60;63.70;;;;;;4942436;28;20047;-62
2020/12/02 03:29:48;;;;;;;163.15;39.58;;;9.60;63.70;;;;;;4951567;28;20142;-62
2020/12/02 03:32:14;;;;;;;166.75;38.38;;;9.60;63.80;;;;;;4939342;28;20035;-62
2020/12/02 03:34:40;;;;;;;174.10;40.17;;;9.70;63.80;;;;;;4943484;28;20042;-62
2020/12/02 03:37:08;;;;;;;178.63;41.00;;;9.70;63.80;;;;;;4944453;28;20035;-62
2020/12/02 03:39:34;;;;;;;184.50;40.90;;;9.70;63.70;;;;;;4948906;28;20031;-62
2020/12/02 03:42:00;;;;;;;198.60;41.13;;;;;;;;;;4943547;28;20031;-62
2020/12/02 03:44:26;;;;;;;194.38;43.17;;;9.70;63.60;;;;;;4945808;28;20043;-62
2020/12/02 03:46:51;;;;;;;194.77;41.72;;;9.70;63.80;;;;;;4945592;28;20511;-62
2020/12/02 03:49:17;;;;;;;186.20;42.47;;;9.70;63.80;;;;;;4962081;28;20050;-62
2020/12/02 03:51:43;;;;;;;196.93;42.03;;;9.70;63.90;;;;;;4951952;28;20404;-62
2020/12/02 03:54:09;;;;;;;198.43;43.75;;;9.70;63.80;;;;;;4947006;28;20043;-62
2020/12/02 03:56:35;;;;;;;181.23;45.08;;;9.70;63.80;;;;;;4943426;28;20122;-62
2020/12/02 03:59:01;;;;;;;181.75;43.55;;;9.70;63.80;;;;;;4946192;28;20092;-62
2020/12/02 04:01:26;;;;;;;183.98;43.78;;;9.70;63.80;;;;;;4945176;28;20042;-62
2020/12/02 04:03:52;;;;;;;170.25;42.17;;;9.70;63.80;;;;;;4947476;28;20079;-66
2020/12/02 04:06:17;;;;;;;188.18;46.00;;;9.70;63.90;;;;;;4943887;28;20065;-62
2020/12/02 04:08:44;;;;;;;170.95;40.72;;;9.70;64.70;;;;;;4947964;28;20042;-62
2020/12/02 04:11:11;;;;;;;189.23;43.60;;;9.70;64.00;;;;;;4948565;28;20110;-61
2020/12/02 04:13:37;;;;;;;191.88;43.50;;;9.70;64.00;;;;;;4946763;28;20047;-62
2020/12/02 04:16:03;;;;;;;186.02;44.97;;;9.70;64.00;;;;;;4946780;28;20066;-62
2020/12/02 04:18:29;;;;;;;177.07;43.65;;;9.70;63.90;;;;;;4945373;28;20097;-62
2020/12/02 04:20:55;;;;;;;174.82;43.83;;;9.70;63.90;;;;;;4948955;28;20051;-62
2020/12/02 04:23:21;;;;;;;171.32;42.45;;;9.70;63.90;;;;;;4947227;28;20062;-62
2020/12/02 04:25:47;;;;;;;173.35;44.90;;;9.70;63.80;;;;;;4953148;28;20038;-62
2020/12/02 04:28:13;;;;;;;158.48;41.80;;;9.60;63.80;;;;;;4950315;28;20105;-62
2020/12/02 04:30:40;;;;;;;158.07;42.67;;;9.60;63.90;;;;;;4951115;28;20101;-62
2020/12/02 04:33:06;;;;;;;151.15;43.03;;;9.60;63.90;;;;;;4944104;28;20043;-62
2020/12/02 04:35:31;;;;;;;148.55;41.85;;;9.60;63.90;;;;;;4942230;28;20183;-62
2020/12/02 04:37:57;;;;;;;151.48;42.22;;;9.60;63.90;;;;;;4947851;28;20289;-62
2020/12/02 04:40:25;;;;;;;138.48;42.00;;;9.60;63.90;;;;;;4954209;28;20058;-62
2020/12/02 04:43:00;;;;;;;135.50;41.40;;;9.60;63.80;;;;;;4945499;28;20082;-62
2020/12/02 04:45:29;;;;;;;136.75;41.95;;;9.60;63.80;;;;;;4948416;28;20098;-62
2020/12/02 04:48:00;;;;;;;132.48;42.20;;;9.60;63.80;;;;;;4948657;28;20121;-62
2020/12/02 04:50:27;;;;;;;136.90;42.38;;;9.60;63.80;;;;;;4948527;28;20492;-62
2020/12/02 04:53:15;;;;;;;134.00;41.53;;;9.50;64.40;;;;;;4949364;28;20058;-62
2020/12/02 04:55:43;;;;;;;141.00;42.78;;;9.50;63.80;;;;;;4948183;28;20139;-62
2020/12/02 04:58:23;;;;;;;133.32;42.95;;;9.50;63.80;;;;;;4946254;28;20043;-62
2020/12/02 05:00:48;;;;;;;128.25;40.95;;;9.50;63.80;;;;;;4948266;28;20050;-62
2020/12/02 05:03:15;;;;;;;132.98;41.95;;;9.50;63.80;;;;;;4947559;28;20074;-62
2020/12/02 05:05:42;;;;;;;122.50;41.40;;;9.50;63.70;;;;;;4949467;28;20098;-62
2020/12/02 05:08:24;;;;;;;131.88;44.15;;;9.50;63.80;;;;;;4946810;28;20035;-65
2020/12/02 05:10:51;;;;;;;129.95;43.35;;;9.40;63.70;;;;;;4948158;28;20046;-65
2020/12/02 05:13:17;;;;;;;123.50;41.67;;;9.50;63.80;;;;;;4946635;28;20131;-62
2020/12/02 05:15:42;;;;;;;123.28;40.35;;;9.50;63.80;;;;;;4948823;28;20058;-62
2020/12/02 05:18:24;;;;;;;122.57;41.42;;;9.40;63.70;;;;;;4962962;28;20043;-62
2020/12/02 05:21:18;;;;;;;116.80;39.58;;;9.50;63.70;;;;;;4948765;28;20063;-62
2020/12/02 05:24:05;;;;;;;115.07;40.22;;;9.50;63.60;;;;;;4945133;28;20130;-62
2020/12/02 05:26:37;;;;;;;117.70;40.58;;;9.40;63.60;;;;;;4939390;28;20054;-62
2020/12/02 05:29:33;;;;;;;121.00;39.78;;;9.40;63.60;;;;;;4946014;28;20039;-62
2020/12/02 05:32:15;;;;;;;113.93;41.28;;;9.40;63.60;;;;;;4945244;28;20677;-62
2020/12/02 05:34:41;;;;;;;114.28;40.72;;;9.40;63.60;;;;;;4947182;28;20051;-62
2020/12/02 05:37:10;;;;;;;116.75;41.50;;;9.40;63.50;;;;;;4948835;28;20512;-62
2020/12/02 05:40:03;;;;;;;118.43;42.58;;;9.40;63.50;;;;;;4941743;28;20510;-62
2020/12/02 05:42:45;;;;;;;117.22;41.88;;;9.40;63.50;;;;;;4932362;28;20057;-62
2020/12/02 05:45:17;;;;;;;111.25;40.70;;;9.40;63.50;;;;;;4942214;28;20748;-62
2020/12/02 05:47:49;;;;;;;117.57;42.00;;;9.40;63.40;;;;;;4936854;28;20054;-62
2020/12/02 05:50:15;;;;;;;121.03;42.17;;;9.40;63.40;;;;;;4934047;28;20471;-63
2020/12/02 05:52:44;;;;;;;107.82;41.40;;;9.40;63.40;;;;;;4931200;28;20407;-62
2020/12/02 05:55:16;;;;;;;114.70;41.80;;;9.40;63.40;;;;;;4937167;28;20043;-63
2020/12/02 05:57:59;;;;;;;107.65;41.90;;;9.40;63.40;;;;;;4930774;28;20768;-62
2020/12/02 06:00:29;;;;;;;106.97;41.03;;;9.40;63.40;;;;;;4934963;28;20106;-62
2020/12/02 06:02:56;;;;;;;113.38;40.92;;;9.40;63.40;;;;;;4938551;28;20053;-62
2020/12/02 06:05:24;;;;;;;105.53;39.42;;;9.40;63.30;;;;;;4938099;28;20043;-63
2020/12/02 06:07:52;;;;;;;111.07;39.35;;;9.50;63.30;;;;;;4937907;28;20039;-63
2020/12/02 06:10:24;;;;;;;113.50;40.63;;;9.40;63.20;;;;;;4942917;28;20039;-63
2020/12/02 06:12:50;;;;;;;120.57;41.55;;;9.50;63.20;;;;;;4944751;28;20054;-63
2020/12/02 06:15:23;;;;;;;102.78;40.17;;;9.50;63.20;;;;;;4947190;28;20038;-63
2020/12/02 06:17:50;;;;;;;108.45;40.80;;;9.40;63.20;;;;;;4942179;28;20050;-63
2020/12/02 06:20:15;;;;;;;113.32;41.88;;;9.40;63.20;;;;;;4940277;28;20039;-63
2020/12/02 06:22:52;;;;;;;111.63;41.17;;;9.40;63.20;;;;;;4947626;28;20824;-63
2020/12/02 06:25:40;;;;;;;102.22;39.28;;;9.50;63.20;;;;;;4943704;28;20047;-63
2020/12/02 06:28:08;;;;;;;118.72;40.05;;;9.50;63.20;;;;;;4935197;28;20035;-63
2020/12/02 06:30:34;;;;;;;116.20;40.40;;;9.40;63.10;;;;;;4946349;28;20072;-63
2020/12/02 06:33:11;;;;;;;107.53;40.33;;;9.40;63.10;;;;;;4940300;28;20044;-63
2020/12/02 06:35:37;;;;;;;110.32;40.28;;;9.40;63.10;;;;;;4939401;28;20140;-63
2020/12/02 06:38:24;;;;;;;107.60;40.47;;;9.40;63.10;;;;;;4938487;28;20079;-63
2020/12/02 06:41:00;;;;;;;107.97;39.90;;;9.40;63.10;;;;;;4935736;28;20508;-63
2020/12/02 06:43:29;;;;;;;108.82;40.47;;;9.40;63.10;;;;;;4931728;28;20043;-63
2020/12/02 06:46:03;;;;;;;102.38;39.67;;;9.40;63.10;;;;;;4942194;28;20046;-63
2020/12/02 06:48:35;;;;;;;109.07;41.90;;;9.40;63.00;;;;;;4938453;28;20126;-63
2020/12/02 06:51:06;;;;;;;111.95;39.17;;;9.50;63.00;;;;;;4936697;28;20046;-63
2020/12/02 06:53:32;;;;;;;107.00;39.95;;;9.50;63.10;;;;;;4940495;28;20039;-63
2020/12/02 06:56:01;;;;;;;108.55;41.10;;;9.50;63.70;;;;;;4942435;28;20093;-63
2020/12/02 06:58:27;;;;;;;103.45;39.88;;;9.50;63.00;;;;;;4953180;28;20046;-63
2020/12/02 07:00:56;;;;;;;100.25;39.53;;;9.50;62.80;;;;;;4939660;28;20586;-63
2020/12/02 07:03:25;;;;;;;106.28;40.58;;;9.50;62.90;;;;;;4942258;28;20283;-63
2020/12/02 07:06:17;;;;;;;109.82;39.97;;;9.50;62.80;;;;;;4942811;28;20093;-63
2020/12/02 07:08:44;;;;;;;105.20;39.00;;;9.40;62.80;;;;;;4946173;28;20492;-63
2020/12/02 07:11:10;;;;;;;99.65;39.28;;;9.40;62.70;;;;;;4941975;28;20050;-63
2020/12/02 07:13:38;;;;;;;103.82;39.10;;;9.40;62.80;;;;;;4946021;28;20039;-63
2020/12/02 07:16:22;;;;;;;100.25;40.90;;;9.40;62.90;;;;;;4939526;28;20054;-63
2020/12/02 07:19:00;;;;;;;110.85;39.25;;;9.40;62.90;;;;;;4949928;28;20117;-63
2020/12/02 07:21:30;;;;;;;107.90;39.13;;;9.40;62.90;;;;;;4942700;28;20047;-63
2020/12/02 07:23:59;;;;;;;103.40;40.03;;;9.30;62.90;;;;;;4939501;28;20190;-63
2020/12/02 07:26:25;;;;;;;96.95;39.45;;;9.30;62.90;;;;;;4947989;28;20125;-63
2020/12/02 07:29:02;;;;;;;99.55;39.95;;;9.30;63.00;;;;;;4944152;28;20047;-63
2020/12/02 07:31:30;;;;;;;98.95;41.08;;;9.40;63.00;;;;;;4943516;28;20130;-63
2020/12/02 07:34:04;;;;;;;98.38;38.13;;;9.40;62.90;;;;;;4941431;28;20047;-63
2020/12/02 07:36:35;;;;;;;99.18;39.58;;;9.40;63.00;;;;;;4933845;28;20043;-63
2020/12/02 07:39:20;;;;;;;100.32;39.50;;;9.40;62.80;;;;;;4947498;28;20035;-63
2020/12/02 07:41:46;;;;;;;100.22;39.88;;;9.40;62.80;;;;;;4937287;28;20130;-63
2020/12/02 07:44:12;;;;;;;101.55;40.33;;;9.40;62.80;;;;;;4943727;28;20116;-63
2020/12/02 07:46:37;;;;;;;109.47;39.70;;;9.40;62.90;;;;;;4945027;28;20421;-63
2020/12/02 07:49:05;;;;;;;101.93;41.83;;;9.40;62.90;;;;;;4942530;28;20057;-63
2020/12/02 07:51:38;;;;;;;104.57;42.08;;;9.40;62.90;;;;;;4944991;28;20077;-63
2020/12/02 07:54:17;;;;;;;102.32;39.42;;;9.40;62.80;;;;;;4955331;28;20130;-63
2020/12/02 07:56:45;;;;;;;104.63;39.60;;;9.40;63.50;;;;;;4955609;28;20058;-63
2020/12/02 07:59:14;;;;;;;98.32;40.58;;;9.40;62.70;;;;;;4956225;28;20141;-63
2020/12/02 08:01:58;;;;;;;103.50;41.45;;;9.50;62.80;;;;;;4950901;28;20410;-64
2020/12/02 08:04:23;;;;;;;95.60;39.47;;;9.50;62.80;;;;;;4948392;28;20062;-63
2020/12/02 08:06:56;;;;;;;100.22;38.83;;;9.50;62.80;;;;;;4947610;28;20109;-63
2020/12/02 08:09:22;;;;;;;100.10;39.30;;;9.50;62.80;;;;;;4948332;28;20051;-63
2020/12/02 08:11:53;;;;;;;99.57;38.20;;;9.50;62.70;;;;;;4946872;28;20042;-66
2020/12/02 08:14:35;;;;;;;99.95;39.63;;;9.50;62.80;;;;;;4949095;28;20043;-64
2020/12/02 08:17:10;;;;;;;104.18;40.60;;;9.50;62.80;;;;;;4946195;28;20035;-63
2020/12/02 08:19:38;;;;;;;102.20;39.08;;;9.50;62.80;;;;;;4945721;28;20038;-67
2020/12/02 08:22:05;;;;;;;100.20;41.28;;;9.50;62.70;;;;;;4949171;28;21443;-63
2020/12/02 08:24:43;;;;;;;101.65;41.13;;;9.60;62.70;;;;;;4941705;28;20043;-63
2020/12/02 08:27:11;;;;;;;100.20;38.67;;;9.60;62.70;;;;;;4946562;28;20163;-63
2020/12/02 08:29:37;;;;;;;100.57;40.00;;;9.60;62.70;;;;;;4941075;28;20034;-64
2020/12/02 08:32:22;;;;;;;107.78;39.88;;;9.60;62.70;;;;;;4949357;28;20042;-63
2020/12/02 08:34:48;;;;;;;102.10;40.95;;;9.60;62.70;;;;;;4949821;28;20054;-63
2020/12/02 08:37:22;;;;;;;97.45;38.78;;;9.60;62.60;;;;;;4949069;28;20023;-63
2020/12/02 08:39:55;;;;;;;102.55;39.50;;;9.60;62.70;;;;;;4948248;28;20035;-63
2020/12/02 08:42:30;;;;;;;100.47;41.45;;;9.60;62.70;;;;;;4948571;28;20162;-63
2020/12/02 08:45:10;;;;;;;101.60;40.78;;;9.60;62.80;;;;;;4948819;28;20035;-63
2020/12/02 08:47:36;;;;;;;102.60;40.90;;;9.60;62.70;;;;;;4933667;28;20047;-63
2020/12/02 08:50:02;;;;;;;95.97;40.25;;;9.70;62.60;;;;;;4940328;28;20046;-63
2020/12/02 08:52:28;;;;;;;99.88;39.97;;;9.60;62.60;;;;;;4962584;23;20070;-61
2020/12/02 08:54:56;;;;;;;104.50;41.33;;;9.70;62.60;;;;;;4957458;28;20121;-61
2020/12/02 08:57:22;;;;;;;94.22;38.28;;;9.60;62.60;;;;;;4949590;28;20034;-61
2020/12/02 08:59:47;;;;;;;93.07;39.85;;;9.70;62.70;;;;;;4950762;28;20046;-60
2020/12/02 09:02:16;;;;;;;97.32;39.47;;;9.70;62.70;;;;;;4953835;28;20057;-61
2020/12/02 09:04:45;;;;;;;96.60;42.05;;;9.70;62.60;;;;;;4950777;28;20101;-61
2020/12/02 09:07:13;;;;;;;98.43;40.00;;;9.70;62.60;;;;;;4952928;28;20035;-61
2020/12/02 09:09:38;;;;;;;95.82;39.55;;;9.80;63.30;;;;;;4950697;28;20529;-61
2020/12/02 09:12:04;;;;;;;94.13;38.03;;;9.80;62.40;;;;;;4951589;28;20062;-61
2020/12/02 09:14:30;;;;;;;86.47;37.70;;;9.80;62.40;;;;;;4954340;28;20094;-61
2020/12/02 09:16:55;;;;;;;96.85;38.75;;;9.90;62.50;;;;;;4943649;28;20050;-61
2020/12/02 09:19:21;;;;;;;90.75;38.80;;;9.90;62.30;;;;;;4952171;28;20042;-61
2020/12/02 09:21:47;;;;;;;89.63;37.55;;;9.90;62.70;;;;;;4951663;28;20499;-61
2020/12/02 09:24:15;;;;;;;89.45;38.03;;;9.90;62.30;;;;;;4951865;28;20463;-61
2020/12/02 09:26:41;;;;;;;87.90;37.50;;;9.90;62.20;;;;;;4953177;28;20535;-61
2020/12/02 09:29:08;;;;;;;92.07;37.92;;;9.90;62.70;;;;;;4952277;28;20081;-61
2020/12/02 09:31:35;;;;;;;93.03;37.97;;;9.90;62.00;;;;;;4945746;28;20046;-61
2020/12/02 09:34:03;;;;;;;85.40;37.10;;;9.90;62.10;;;;;;4945783;28;20039;-61
2020/12/02 09:36:29;;;;;;;84.30;35.90;;;9.90;62.00;;;;;;4951487;28;20031;-61
2020/12/02 09:38:55;;;;;;;76.85;36.13;;;9.80;61.90;;;;;;4949728;28;20039;-61
2020/12/02 09:41:42;;;;;;;81.55;36.95;;;9.80;61.90;;;;;;4955266;28;20040;-61
2020/12/02 09:44:29;;;;;;;88.10;36.28;;;9.80;62.00;;;;;;4953892;28;20039;-61
2020/12/02 09:47:16;;;;;;;86.10;37.63;;;9.80;61.90;;;;;;4941172;28;20569;-61
2020/12/02 09:49:45;;;;;;;85.55;36.15;;;9.80;61.90;;;;;;4950124;28;20043;-61
2020/12/02 09:52:12;;;;;;;76.13;35.10;;;9.80;62.00;;;;;;4948174;28;20043;-61
2020/12/02 09:54:43;;;;;;;78.75;35.08;;;9.80;62.10;;;;;;4950565;28;20078;-61
2020/12/02 09:57:16;;;;;;;76.53;34.90;;;9.80;62.00;;;;;;4951350;28;20372;-61
2020/12/02 09:59:42;;;;;;;74.50;34.90;;;9.80;61.90;;;;;;4956339;28;20047;-61
2020/12/02 10:02:20;;;;;;;80.55;35.05;;;9.80;61.80;;;;;;4951286;28;20070;-61
2020/12/02 10:05:20;;;;;;;72.75;32.63;;;9.80;61.60;;;;;;4949295;28;20046;-61
2020/12/02 10:07:49;;;;;;;80.60;34.65;;;9.80;61.70;;;;;;4941106;28;20047;-61
2020/12/02 10:10:51;;;;;;;74.65;32.85;;;9.80;61.80;;;;;;4951658;28;20138;-61
2020/12/02 10:13:45;;;;;;;70.82;33.35;;;9.80;61.70;;;;;;4943398;28;20546;-61
2020/12/02 10:16:31;;;;;;;76.20;35.95;;;9.80;61.70;;;;;;4948941;28;20027;-61
2020/12/02 10:19:19;;;;;;;74.18;33.20;;;9.80;61.70;;;;;;4947203;28;20039;-61
2020/12/02 10:21:44;;;;;;;78.25;35.45;;;9.80;61.60;;;;;;4948350;28;20047;-61
2020/12/02 10:24:17;;;;;;;73.93;33.83;;;9.80;61.50;;;;;;4946301;28;20069;-60
2020/12/02 10:26:43;;;;;;;76.50;34.83;;;9.80;61.50;;;;;;4946073;28;20034;-61
2020/12/02 10:29:18;;;;;;;68.80;33.22;;;9.80;61.50;;;;;;4947153;28;20912;-61
2020/12/02 10:32:14;;;;;;;75.03;32.78;;;9.80;61.40;;;;;;4946038;28;20035;-61
2020/12/02 10:34:43;;;;;;;69.90;32.45;;;9.80;61.40;;;;;;4952475;28;20039;-61
2020/12/02 10:37:21;;;;;;;68.65;31.55;;;9.80;61.30;;;;;;4947647;28;20039;-61
2020/12/02 10:39:47;;;;;;;66.68;31.73;;;9.80;61.20;;;;;;4947225;28;20117;-61
2020/12/02 10:42:38;;;;;;;71.50;31.88;;;9.80;61.40;;;;;;4950497;28;20050;-61
2020/12/02 10:45:13;;;;;;;68.07;32.42;;;9.80;61.40;;;;;;4949343;28;20039;-60
2020/12/02 10:47:50;;;;;;;66.57;32.03;;;9.90;61.40;;;;;;4951134;28;20042;-61
2020/12/02 10:50:19;;;;;;;65.78;31.33;;;9.90;61.40;;;;;;4953260;28;20527;-61
2020/12/02 10:52:49;;;;;;;63.80;29.65;;;9.90;61.30;;;;;;4950427;28;20074;-60
2020/12/02 10:55:17;;;;;;;74.32;32.47;;;9.90;61.10;;;;;;4947026;28;20699;-61
2020/12/02 10:57:44;;;;;;;64.07;30.38;;;9.90;61.10;;;;;;4947911;28;20051;-61
2020/12/02 11:00:14;;;;;;;71.20;31.13;;;9.90;61.00;;;;;;4954062;28;20047;-61
2020/12/02 11:02:39;;;;;;;60.75;29.92;;;9.90;60.90;;;;;;4949838;28;20047;-61
2020/12/02 11:05:07;;;;;;;62.67;31.23;;;9.90;60.90;;;;;;4954160;28;20039;-61
2020/12/02 11:08:08;;;;;;;61.28;30.90;;;10.00;61.00;;;;;;4944908;28;20038;-61
2020/12/02 11:11:08;;;;;;;59.90;28.95;;;10.00;60.80;;;;;;4924482;28;21677;-61
2020/12/02 11:13:52;;;;;;;55.88;28.67;;;10.00;60.90;;;;;;4946296;28;20043;-61
2020/12/02 11:16:32;;;;;;;59.65;29.60;;;10.00;60.70;;;;;;4947577;28;20086;-62
2020/12/02 11:19:24;;;;;;;60.55;28.88;;;10.00;60.60;;;;;;4940264;28;20043;-61
2020/12/02 11:22:17;;;;;;;66.70;29.88;;;10.00;60.70;;;;;;4946014;28;20039;-61
2020/12/02 11:24:54;;;;;;;59.35;29.95;;;10.00;60.60;;;;;;4951860;28;20085;-61
2020/12/02 11:27:19;;;;;;;65.72;31.35;;;10.00;60.40;;;;;;4947514;28;20050;-61
2020/12/02 11:29:48;;;;;;;62.85;29.02;;;10.00;60.40;;;;;;4945942;28;20423;-61
2020/12/02 11:32:50;;;;;;;63.63;29.58;;;10.00;60.40;;;;;;4942585;28;20098;-61
2020/12/02 11:35:53;;;;;;;65.22;30.45;;;10.00;60.30;;;;;;4947966;28;20289;-61
2020/12/02 11:38:39;;;;;;;64.47;30.05;;;10.00;60.10;;;;;;4943370;28;20082;-61
2020/12/02 11:41:07;;;;;;;62.88;30.35;;;10.00;60.20;;;;;;4952928;28;20035;-61
2020/12/02 11:43:40;;;;;;;67.93;33.25;;;10.00;60.20;;;;;;4952016;28;20045;-61
2020/12/02 11:46:08;;;;;;;62.58;30.25;;;10.00;60.10;;;;;;4949868;28;20086;-61
2020/12/02 11:48:45;;;;;;;65.10;31.92;;;10.00;60.00;;;;;;4946145;28;20070;-61
2020/12/02 11:51:48;;;;;;;65.07;31.15;;;10.00;60.10;;;;;;4940245;23;20716;-61
2020/12/02 11:54:14;;;;;;;63.58;30.05;;;10.00;60.00;;;;;;4943518;28;20042;-61
2020/12/02 11:56:48;;;;;;;67.70;31.88;;;10.00;60.10;;;;;;4948814;28;20039;-61
2020/12/02 11:59:27;;;;;;;66.53;32.47;;;10.00;60.00;;;;;;4951376;28;20110;-60
2020/12/02 12:01:56;;;;;;;71.60;31.88;;;10.10;60.00;;;;;;4943686;28;20219;-61
2020/12/02 12:04:35;;;;;;;62.20;30.73;;;10.10;59.90;;;;;;4945619;28;20055;-61
2020/12/02 12:07:19;;;;;;;68.53;32.63;;;10.10;59.80;;;;;;4949849;28;20638;-61
2020/12/02 12:10:25;;;;;;;65.40;30.75;;;10.00;59.80;;;;;;4951923;28;20059;-61
2020/12/02 12:13:11;;;;;;;69.72;33.22;;;10.00;59.80;;;;;;4948715;28;20583;-61
2020/12/02 12:15:44;;;;;;;72.85;32.20;;;9.90;59.80;;;;;;4952491;28;20556;-61
2020/12/02 12:18:43;;;;;;;68.18;32.55;;;9.90;59.80;;;;;;4949891;28;20117;-61
2020/12/02 12:21:23;;;;;;;68.78;32.88;;;9.80;59.80;;;;;;4953338;28;20039;-61
2020/12/02 12:23:58;;;;;;;76.82;32.10;;;9.80;59.90;;;;;;4951032;28;20058;-61
2020/12/02 12:26:28;;;;;;;66.45;32.63;;;9.80;59.90;;;;;;4952355;28;20516;-61
2020/12/02 12:28:54;;;;;;;66.07;31.38;;;9.80;59.90;;;;;;4952584;28;20469;-61
2020/12/02 12:31:51;;;;;;;66.22;30.38;;;9.80;59.90;;;;;;4945671;28;20047;-61
2020/12/02 12:34:35;;;;;;;66.57;32.22;;;9.80;59.90;;;;;;4938100;28;20108;-61
2020/12/02 12:37:05;;;;;;;63.33;31.50;;;9.80;59.90;;;;;;4944841;28;20689;-61
2020/12/02 12:39:46;;;;;;;72.15;34.67;;;9.80;59.90;;;;;;4948475;28;20057;-61
2020/12/02 12:42:13;;;;;;;68.22;32.20;;;9.80;60.00;;;;;;4953114;28;20140;-61
2020/12/02 12:44:41;;;;;;;71.65;31.70;;;9.80;60.00;;;;;;4951576;28;20047;-61
2020/12/02 12:47:24;;;;;;;68.70;32.88;;;9.80;60.00;;;;;;4943090;28;20043;-61
2020/12/02 12:49:52;;;;;;;75.85;34.50;;;9.70;60.00;;;;;;4942698;28;20123;-61
2020/12/02 12:52:30;;;;;;;74.93;34.40;;;9.70;60.00;;;;;;4939824;23;20078;-61
2020/12/02 12:54:56;;;;;;;71.50;34.42;;;9.70;60.20;;;;;;4931567;28;20045;-60
2020/12/02 12:57:27;;;;;;;73.38;34.08;;;9.60;60.20;;;;;;4931990;28;20043;-61
2020/12/02 12:59:55;;;;;;;71.15;34.05;;;9.70;60.20;;;;;;4932269;28;20047;-62